עמוד ראשי
METAR-TAF:

METAR-TAF

שדות תעופה :

Ipiales, קולומביה

קו רוחב: 00-49N, קו אורך: 077-38W, גובה: 2961מטר

תצפית מזג אוויר נוכחית

הדו"ח נערך לפני 1 שעות ו 36דקות, בשעה 13:00 UTC
רוח רגועה
טמפרטורת 11 צלסיוס
לחות 87%
לחץ 1032 hPa
ראות 10 קילומטר או יותר
מעט עננים בגובה 1200רגל
עננים פזורים בגובה 8000רגל

METAR: SKIP 241300Z 00000KT 9999 FEW012 SCT080 11/09 Q1032

זמן: 09:36 (14:36 UTC)


TAF: חסר

תצפיות ותחזיות מזג אוויר לגבי יותר מ- 4,000 שדות תעופה ברחבי העולם. דוחות METAR ו- TAF.

התחנות הזמינות מסומנות בנקודות צהובות ואדומות על גבי המפה.

העבר את העכבר לנקודה הצבעונית על מנת לראות את שם התחנה.

לאחר מכן, לחץ כדי לראות את תוכן ואת תחזיות מזג האוויר.

כדי לשנות את המפה: לחץ על הכפתורים הירוקים עם הפלוס השחור כדי להתקרב; על הכפתור הירוק עם המקף כדי להתרחק; או בחיצים הירוקים למפות סמוכות.


METAR-TAF: